createdAt,value
2022-10-15T00:03:13.849Z,99009.33
2022-10-15T00:08:16.745Z,99009.52
2022-10-15T00:13:19.669Z,99006.00
2022-10-15T00:18:22.644Z,99004.83
2022-10-15T00:23:25.624Z,99002.29
2022-10-15T00:28:31.939Z,98994.73
2022-10-15T00:33:38.211Z,98991.52
2022-10-15T00:38:42.181Z,98984.52
2022-10-15T00:43:47.343Z,98985.45
2022-10-15T00:48:54.813Z,98983.48
2022-10-15T00:53:57.757Z,98986.36
2022-10-15T00:59:01.243Z,98979.73
2022-10-15T01:04:05.933Z,98976.20
2022-10-15T01:09:08.968Z,98968.95
2022-10-15T01:14:42.356Z,98966.33
2022-10-15T01:20:04.887Z,98963.86
2022-10-15T01:25:35.588Z,98960.39
2022-10-15T01:30:41.887Z,98954.97
2022-10-15T01:35:52.978Z,98954.15
2022-10-15T01:41:20.432Z,98950.59
2022-10-15T01:46:35.382Z,98948.66
2022-10-15T01:51:44.041Z,98950.48
2022-10-15T01:56:50.789Z,98953.23
2022-10-15T02:01:58.101Z,98944.92
2022-10-15T02:07:18.934Z,98939.24
2022-10-15T02:12:38.706Z,98935.06
2022-10-15T02:17:44.938Z,98927.96
2022-10-15T02:22:50.427Z,98923.70
2022-10-15T02:27:56.982Z,98922.88
2022-10-15T02:33:00.258Z,98925.52
2022-10-15T02:38:07.237Z,98929.55
2022-10-15T02:43:13.090Z,98923.48
2022-10-15T02:48:17.059Z,98925.64
2022-10-15T02:53:21.887Z,98920.04
2022-10-15T02:58:26.024Z,98918.46
2022-10-15T03:03:29.447Z,98917.23
2022-10-15T03:08:33.415Z,98909.79
2022-10-15T03:13:39.212Z,98898.69
2022-10-15T03:18:42.642Z,98896.10
2022-10-15T03:23:46.107Z,98900.45
2022-10-15T03:28:53.438Z,98899.36
2022-10-15T03:34:09.628Z,98901.80
2022-10-15T03:39:13.946Z,98900.61
2022-10-15T03:44:17.150Z,98898.50
2022-10-15T03:49:21.586Z,98890.58
2022-10-15T03:54:29.959Z,98886.48
2022-10-15T03:59:33.455Z,98883.67
2022-10-15T04:04:38.129Z,98880.20
2022-10-15T04:09:41.984Z,98876.79
2022-10-15T04:15:09.332Z,98873.59
2022-10-15T04:20:15.550Z,98875.87
2022-10-15T04:25:19.846Z,98879.41
2022-10-15T04:30:22.735Z,98882.20
2022-10-15T04:35:30.791Z,98876.20
2022-10-15T04:41:01.969Z,98879.67
2022-10-15T04:46:12.135Z,98881.76
2022-10-15T04:51:21.849Z,98877.36
2022-10-15T04:56:57.371Z,98871.40
2022-10-15T05:02:00.972Z,98871.60
2022-10-15T05:07:04.382Z,98869.95
2022-10-15T05:12:08.545Z,98875.92
2022-10-15T05:17:11.640Z,98870.61
2022-10-15T05:22:16.762Z,98873.11
2022-10-15T05:27:25.142Z,98873.99
2022-10-15T05:32:28.122Z,98871.77
2022-10-15T05:37:31.089Z,98867.60
2022-10-15T05:42:35.536Z,98864.44
2022-10-15T05:47:38.579Z,98865.59
2022-10-15T05:52:50.204Z,98870.81
2022-10-15T05:58:03.442Z,98864.98
2022-10-15T06:03:06.383Z,98864.92
2022-10-15T06:08:09.389Z,98868.30
2022-10-15T06:13:12.935Z,98870.34
2022-10-15T06:18:16.590Z,98878.52
2022-10-15T06:23:22.029Z,98884.77
2022-10-15T06:28:24.915Z,98890.14
2022-10-15T06:33:28.953Z,98894.58
2022-10-15T06:38:32.843Z,98898.68
2022-10-15T06:43:36.203Z,98899.97
2022-10-15T06:48:39.426Z,98903.73
2022-10-15T06:53:43.901Z,98902.83
2022-10-15T06:58:46.840Z,98891.75
2022-10-15T07:03:52.877Z,98888.89
2022-10-15T07:08:55.853Z,98886.34
2022-10-15T07:13:58.904Z,98884.56
2022-10-15T07:19:01.903Z,98882.41
2022-10-15T07:24:05.133Z,98887.52
2022-10-15T07:29:09.880Z,98889.25
2022-10-15T07:34:12.788Z,98895.19
2022-10-15T07:39:18.983Z,98893.85
2022-10-15T07:44:22.009Z,98891.13
2022-10-15T07:49:24.823Z,98886.98
2022-10-15T07:54:27.691Z,98888.96
2022-10-15T07:59:30.528Z,98889.66
2022-10-15T08:04:35.122Z,98890.83
2022-10-15T08:09:38.106Z,98892.77
2022-10-15T08:14:41.217Z,98890.98
2022-10-15T08:19:44.289Z,98891.51
2022-10-15T08:24:47.784Z,98892.16
2022-10-15T08:29:50.584Z,98895.21
2022-10-15T08:34:53.581Z,98895.77
2022-10-15T08:39:56.466Z,98890.43
2022-10-15T08:45:03.870Z,98884.09
2022-10-15T08:50:49.241Z,98880.38
2022-10-15T08:56:04.193Z,98879.81
2022-10-15T09:01:29.093Z,98876.34
2022-10-15T09:06:37.224Z,98879.19
2022-10-15T09:11:52.372Z,98876.61
2022-10-15T09:16:55.303Z,98877.72
2022-10-15T09:22:01.663Z,98873.66
2022-10-15T09:27:32.939Z,98876.53
2022-10-15T09:32:38.427Z,98881.80
2022-10-15T09:37:41.154Z,98882.91
2022-10-15T09:42:45.600Z,98885.54
2022-10-15T09:47:50.829Z,98886.23
2022-10-15T09:53:02.903Z,98885.14
2022-10-15T09:58:12.667Z,98883.11
2022-10-15T10:03:15.884Z,98886.40
2022-10-15T10:08:24.555Z,98884.91
2022-10-15T10:13:36.159Z,98883.63
2022-10-15T10:18:39.736Z,98881.67
2022-10-15T10:23:42.556Z,98884.04
2022-10-15T10:29:04.410Z,98880.73
2022-10-15T10:34:17.401Z,98885.53
2022-10-15T10:39:26.327Z,98887.08
2022-10-15T10:44:32.341Z,98893.36
2022-10-15T10:49:55.402Z,98902.29
2022-10-15T10:55:20.972Z,98903.98
2022-10-15T11:00:42.084Z,98908.16
2022-10-15T11:05:45.556Z,98909.09
2022-10-15T11:11:04.719Z,98909.30
2022-10-15T11:16:29.418Z,98911.14
2022-10-15T11:21:46.118Z,98911.95
2022-10-15T11:27:30.993Z,98910.84
2022-10-15T11:33:05.493Z,98909.48
2022-10-15T11:38:44.052Z,98905.88
2022-10-15T11:44:22.272Z,98902.61
2022-10-15T11:49:49.974Z,98892.36
2022-10-15T11:55:14.326Z,98881.67
2022-10-15T12:00:32.055Z,98878.21
2022-10-15T12:05:42.148Z,98882.36
2022-10-15T12:10:53.854Z,98877.40
2022-10-15T12:16:06.519Z,98875.39
2022-10-15T12:21:39.239Z,98876.21
2022-10-15T12:26:42.383Z,98875.68
2022-10-15T12:31:52.926Z,98872.56
2022-10-15T12:37:06.492Z,98878.64
2022-10-15T12:42:41.551Z,98880.45
2022-10-15T12:47:54.393Z,98875.83
2022-10-15T12:52:59.092Z,98868.41
2022-10-15T12:58:22.291Z,98870.87
2022-10-15T13:03:35.517Z,98871.30
2022-10-15T13:08:44.387Z,98867.46
2022-10-15T13:13:50.325Z,98864.79
2022-10-15T13:18:56.838Z,98856.79
2022-10-15T13:23:59.643Z,98853.63
2022-10-15T13:29:02.686Z,98856.41
2022-10-15T13:34:24.075Z,98846.81
2022-10-15T13:39:40.242Z,98849.69
2022-10-15T13:44:58.236Z,98854.64
2022-10-15T13:50:27.182Z,98853.47
2022-10-15T13:55:36.084Z,98857.08
2022-10-15T14:00:40.602Z,98857.44
2022-10-15T14:05:46.072Z,98866.37
2022-10-15T14:10:50.188Z,98858.84
2022-10-15T14:16:11.945Z,98855.16
2022-10-15T14:21:18.446Z,98863.40
2022-10-15T14:26:24.703Z,98861.41
2022-10-15T14:31:40.267Z,98861.16
2022-10-15T14:36:43.472Z,98864.83
2022-10-15T14:42:31.535Z,98868.73
2022-10-15T14:47:34.545Z,98873.76
2022-10-15T14:52:45.848Z,98878.46
2022-10-15T14:57:49.968Z,98878.83
2022-10-15T15:02:56.836Z,98885.07
2022-10-15T15:08:04.318Z,98892.45
2022-10-15T15:13:22.675Z,98898.58
2022-10-15T15:18:25.524Z,98901.45
2022-10-15T15:23:29.712Z,98902.95
2022-10-15T15:28:34.187Z,98902.05
2022-10-15T15:33:37.137Z,98905.45
2022-10-15T15:38:40.554Z,98906.27
2022-10-15T15:43:43.733Z,98904.63
2022-10-15T15:48:47.124Z,98909.08
2022-10-15T15:53:50.396Z,98914.27
2022-10-15T15:58:53.402Z,98910.86
2022-10-15T16:03:56.286Z,98914.20
2022-10-15T16:08:59.642Z,98911.52
2022-10-15T16:14:05.843Z,98907.93
2022-10-15T16:19:11.725Z,98905.71
2022-10-15T16:24:14.611Z,98913.61
2022-10-15T16:29:17.601Z,98913.83
2022-10-15T16:37:02.595Z,98930.97
2022-10-15T16:42:08.527Z,98941.20
2022-10-15T16:47:11.441Z,98943.88
2022-10-15T16:52:15.187Z,98949.89
2022-10-15T16:57:18.017Z,98951.88
2022-10-15T17:02:20.943Z,98959.83
2022-10-15T17:07:24.567Z,98964.70
2022-10-15T17:12:28.142Z,98973.55
2022-10-15T17:17:31.415Z,98978.86
2022-10-15T17:22:44.575Z,98980.35
2022-10-15T17:27:47.428Z,98982.05
2022-10-15T17:32:50.300Z,98988.97
2022-10-15T17:37:53.358Z,98991.25
2022-10-15T17:42:56.542Z,98988.84
2022-10-15T17:47:59.404Z,98993.20
2022-10-15T17:53:04.177Z,98993.86
2022-10-15T17:58:08.040Z,98998.17
2022-10-15T18:03:11.782Z,98996.35
2022-10-15T18:08:15.683Z,98992.83
2022-10-15T18:13:18.857Z,98990.91
2022-10-15T18:18:21.788Z,98989.96
2022-10-15T18:23:25.245Z,98994.45
2022-10-15T18:28:28.225Z,98990.92
2022-10-15T18:33:32.136Z,98995.98
2022-10-15T18:38:35.685Z,99000.05
2022-10-15T18:43:38.543Z,99006.59
2022-10-15T18:48:41.427Z,99008.58
2022-10-15T18:53:44.297Z,99017.89
2022-10-15T18:58:47.339Z,99027.36
2022-10-15T19:03:52.567Z,99031.36
2022-10-15T19:09:03.845Z,99033.84
2022-10-15T19:14:09.208Z,99040.14
2022-10-15T19:19:16.309Z,99043.04
2022-10-15T19:24:21.317Z,99045.55
2022-10-15T19:29:24.178Z,99051.20
2022-10-15T19:34:28.137Z,99056.73
2022-10-15T19:39:32.886Z,99060.12
2022-10-15T19:44:35.797Z,99063.42
2022-10-15T19:49:39.053Z,99057.95
2022-10-15T19:54:42.165Z,99060.91
2022-10-15T19:59:45.165Z,99063.47
2022-10-15T20:04:48.034Z,99065.16
2022-10-15T20:09:51.554Z,99073.29
2022-10-15T20:14:54.425Z,99085.70
2022-10-15T20:19:57.304Z,99091.05
2022-10-15T20:25:00.327Z,99092.80
2022-10-15T20:30:04.634Z,99090.80
2022-10-15T20:35:08.101Z,99100.96
2022-10-15T20:40:11.246Z,99106.54
2022-10-15T20:45:14.677Z,99107.32
2022-10-15T20:50:22.835Z,99111.96
2022-10-15T20:55:25.814Z,99118.54
2022-10-15T21:00:29.786Z,99122.77
2022-10-15T21:05:33.678Z,99119.17
2022-10-15T21:10:36.720Z,99126.95
2022-10-15T21:15:39.564Z,99130.56
2022-10-15T21:20:42.468Z,99124.91
2022-10-15T21:25:45.532Z,99129.34
2022-10-15T21:30:48.375Z,99131.22
2022-10-15T21:35:51.222Z,99128.88
2022-10-15T21:40:54.102Z,99138.29
2022-10-15T21:46:11.083Z,99144.73
2022-10-15T21:51:26.967Z,99146.57
2022-10-15T21:56:29.774Z,99145.60
2022-10-15T22:01:35.419Z,99146.40
2022-10-15T22:06:42.673Z,99146.09
2022-10-15T22:11:45.522Z,99147.73
2022-10-15T22:16:48.465Z,99152.05
2022-10-15T22:21:51.453Z,99155.86
2022-10-15T22:26:57.293Z,99158.70
2022-10-15T22:32:00.160Z,99158.23
2022-10-15T22:37:03.158Z,99159.49
2022-10-15T22:42:06.553Z,99162.98
2022-10-15T22:47:10.033Z,99162.39
2022-10-15T22:52:12.969Z,99167.33
2022-10-15T22:57:15.761Z,99170.91
2022-10-15T23:02:21.697Z,99175.52
2022-10-15T23:07:24.766Z,99181.32
2022-10-15T23:12:28.043Z,99185.38
2022-10-15T23:17:32.409Z,99190.02
2022-10-15T23:22:35.274Z,99189.83
2022-10-15T23:27:38.242Z,99187.04
2022-10-15T23:32:42.226Z,99182.84
2022-10-15T23:37:45.060Z,99188.86
2022-10-15T23:42:48.684Z,99190.00
2022-10-15T23:47:53.270Z,99189.61
2022-10-15T23:52:57.596Z,99190.14
2022-10-15T23:58:01.045Z,99193.49
